sensor_id;sensor_type;location;lat;lon;timestamp;P1;durP1;ratioP1;P2;durP2;ratioP2
21848;SDS011;11089;49.852;19.700;2023-12-20T00:01:45;5.18;;;3.33;;
21848;SDS011;11089;49.852;19.700;2023-12-20T00:04:45;5.15;;;2.78;;
21848;SDS011;11089;49.852;19.700;2023-12-20T00:07:46;5.63;;;2.97;;
21848;SDS011;11089;49.852;19.700;2023-12-20T00:10:48;4.03;;;2.95;;
21848;SDS011;11089;49.852;19.700;2023-12-20T00:13:49;6.55;;;3.20;;
21848;SDS011;11089;49.852;19.700;2023-12-20T00:16:51;4.18;;;2.55;;
21848;SDS011;11089;49.852;19.700;2023-12-20T00:19:52;5.32;;;3.30;;
21848;SDS011;11089;49.852;19.700;2023-12-20T00:22:54;6.63;;;3.28;;
21848;SDS011;11089;49.852;19.700;2023-12-20T00:25:58;6.82;;;3.30;;
21848;SDS011;11089;49.852;19.700;2023-12-20T00:29:00;5.38;;;3.38;;
21848;SDS011;11089;49.852;19.700;2023-12-20T00:32:01;5.53;;;3.40;;
21848;SDS011;11089;49.852;19.700;2023-12-20T00:35:02;6.65;;;4.20;;
21848;SDS011;11089;49.852;19.700;2023-12-20T00:38:03;6.38;;;3.70;;
21848;SDS011;11089;49.852;19.700;2023-12-20T00:41:05;7.88;;;3.72;;
21848;SDS011;11089;49.852;19.700;2023-12-20T00:44:07;6.03;;;3.67;;
21848;SDS011;11089;49.852;19.700;2023-12-20T00:47:08;7.13;;;4.13;;
21848;SDS011;11089;49.852;19.700;2023-12-20T00:50:09;6.70;;;4.10;;
21848;SDS011;11089;49.852;19.700;2023-12-20T00:53:10;8.25;;;4.40;;
21848;SDS011;11089;49.852;19.700;2023-12-20T00:56:11;7.32;;;3.97;;
21848;SDS011;11089;49.852;19.700;2023-12-20T00:59:12;6.63;;;4.53;;
21848;SDS011;11089;49.852;19.700;2023-12-20T01:02:13;7.38;;;4.10;;
21848;SDS011;11089;49.852;19.700;2023-12-20T01:05:15;7.18;;;3.63;;
21848;SDS011;11089;49.852;19.700;2023-12-20T01:08:17;7.03;;;4.32;;
21848;SDS011;11089;49.852;19.700;2023-12-20T01:11:18;6.22;;;4.05;;
21848;SDS011;11089;49.852;19.700;2023-12-20T01:14:20;7.00;;;4.03;;
21848;SDS011;11089;49.852;19.700;2023-12-20T01:17:21;6.30;;;3.95;;
21848;SDS011;11089;49.852;19.700;2023-12-20T01:20:22;7.13;;;4.38;;
21848;SDS011;11089;49.852;19.700;2023-12-20T01:23:24;7.80;;;3.83;;
21848;SDS011;11089;49.852;19.700;2023-12-20T01:26:25;6.38;;;4.20;;
21848;SDS011;11089;49.852;19.700;2023-12-20T01:29:26;7.40;;;4.43;;
21848;SDS011;11089;49.852;19.700;2023-12-20T01:32:27;7.20;;;4.43;;
21848;SDS011;11089;49.852;19.700;2023-12-20T01:35:29;6.40;;;3.85;;
21848;SDS011;11089;49.852;19.700;2023-12-20T01:38:30;6.80;;;4.00;;
21848;SDS011;11089;49.852;19.700;2023-12-20T01:41:31;7.70;;;4.22;;
21848;SDS011;11089;49.852;19.700;2023-12-20T01:44:32;8.02;;;3.90;;
21848;SDS011;11089;49.852;19.700;2023-12-20T01:47:33;5.60;;;3.83;;
21848;SDS011;11089;49.852;19.700;2023-12-20T01:50:35;6.75;;;3.83;;
21848;SDS011;11089;49.852;19.700;2023-12-20T01:53:38;6.22;;;3.45;;
21848;SDS011;11089;49.852;19.700;2023-12-20T01:56:40;6.07;;;3.83;;
21848;SDS011;11089;49.852;19.700;2023-12-20T01:59:42;6.28;;;4.07;;
21848;SDS011;11089;49.852;19.700;2023-12-20T02:02:45;6.88;;;3.83;;
21848;SDS011;11089;49.852;19.700;2023-12-20T02:05:46;6.55;;;3.53;;
21848;SDS011;11089;49.852;19.700;2023-12-20T02:08:48;8.25;;;3.95;;
21848;SDS011;11089;49.852;19.700;2023-12-20T02:11:50;6.00;;;3.60;;
21848;SDS011;11089;49.852;19.700;2023-12-20T02:14:51;5.82;;;4.03;;
21848;SDS011;11089;49.852;19.700;2023-12-20T02:17:54;6.57;;;4.07;;
21848;SDS011;11089;49.852;19.700;2023-12-20T02:20:55;6.07;;;3.80;;
21848;SDS011;11089;49.852;19.700;2023-12-20T02:23:56;7.10;;;3.67;;
21848;SDS011;11089;49.852;19.700;2023-12-20T02:26:58;6.13;;;3.60;;
21848;SDS011;11089;49.852;19.700;2023-12-20T02:29:59;6.72;;;3.45;;
21848;SDS011;11089;49.852;19.700;2023-12-20T02:33:00;7.50;;;3.67;;
21848;SDS011;11089;49.852;19.700;2023-12-20T02:36:03;4.95;;;3.60;;
21848;SDS011;11089;49.852;19.700;2023-12-20T02:39:05;6.18;;;3.75;;
21848;SDS011;11089;49.852;19.700;2023-12-20T02:42:06;6.18;;;3.40;;
21848;SDS011;11089;49.852;19.700;2023-12-20T02:45:07;6.07;;;3.58;;
21848;SDS011;11089;49.852;19.700;2023-12-20T02:48:08;4.75;;;3.08;;
21848;SDS011;11089;49.852;19.700;2023-12-20T02:51:09;6.57;;;3.25;;
21848;SDS011;11089;49.852;19.700;2023-12-20T02:54:09;5.78;;;3.60;;
21848;SDS011;11089;49.852;19.700;2023-12-20T02:57:10;5.25;;;3.45;;
21848;SDS011;11089;49.852;19.700;2023-12-20T03:00:12;5.35;;;3.42;;
21848;SDS011;11089;49.852;19.700;2023-12-20T03:03:13;6.88;;;3.80;;
21848;SDS011;11089;49.852;19.700;2023-12-20T03:06:17;4.75;;;3.40;;
21848;SDS011;11089;49.852;19.700;2023-12-20T03:09:18;6.45;;;3.55;;
21848;SDS011;11089;49.852;19.700;2023-12-20T03:12:19;5.13;;;3.22;;
21848;SDS011;11089;49.852;19.700;2023-12-20T03:15:20;4.97;;;3.13;;
21848;SDS011;11089;49.852;19.700;2023-12-20T03:18:21;7.03;;;3.60;;
21848;SDS011;11089;49.852;19.700;2023-12-20T03:21:22;5.00;;;3.40;;
21848;SDS011;11089;49.852;19.700;2023-12-20T03:24:23;6.22;;;3.55;;
21848;SDS011;11089;49.852;19.700;2023-12-20T03:27:24;6.88;;;3.65;;
21848;SDS011;11089;49.852;19.700;2023-12-20T03:30:25;7.00;;;3.55;;
21848;SDS011;11089;49.852;19.700;2023-12-20T03:33:26;7.97;;;3.80;;
21848;SDS011;11089;49.852;19.700;2023-12-20T03:36:27;5.45;;;3.20;;
21848;SDS011;11089;49.852;19.700;2023-12-20T03:39:28;7.50;;;3.80;;
21848;SDS011;11089;49.852;19.700;2023-12-20T03:42:30;5.90;;;3.35;;
21848;SDS011;11089;49.852;19.700;2023-12-20T03:45:31;7.03;;;4.03;;
21848;SDS011;11089;49.852;19.700;2023-12-20T03:48:32;5.95;;;3.55;;
21848;SDS011;11089;49.852;19.700;2023-12-20T03:51:32;4.78;;;3.03;;
21848;SDS011;11089;49.852;19.700;2023-12-20T03:54:34;4.43;;;3.17;;
21848;SDS011;11089;49.852;19.700;2023-12-20T03:57:36;4.72;;;2.97;;
21848;SDS011;11089;49.852;19.700;2023-12-20T04:00:37;4.95;;;3.35;;
21848;SDS011;11089;49.852;19.700;2023-12-20T04:03:38;6.60;;;3.38;;
21848;SDS011;11089;49.852;19.700;2023-12-20T04:06:40;6.22;;;3.60;;
21848;SDS011;11089;49.852;19.700;2023-12-20T04:09:41;4.30;;;3.22;;
21848;SDS011;11089;49.852;19.700;2023-12-20T04:12:42;5.45;;;3.47;;
21848;SDS011;11089;49.852;19.700;2023-12-20T04:15:43;5.32;;;3.15;;
21848;SDS011;11089;49.852;19.700;2023-12-20T04:18:44;6.50;;;3.20;;
21848;SDS011;11089;49.852;19.700;2023-12-20T04:21:45;6.80;;;3.33;;
21848;SDS011;11089;49.852;19.700;2023-12-20T04:24:46;5.38;;;3.35;;
21848;SDS011;11089;49.852;19.700;2023-12-20T04:27:47;7.00;;;3.33;;
21848;SDS011;11089;49.852;19.700;2023-12-20T04:30:48;6.55;;;3.55;;
21848;SDS011;11089;49.852;19.700;2023-12-20T04:33:49;6.75;;;3.40;;
21848;SDS011;11089;49.852;19.700;2023-12-20T04:36:50;6.22;;;3.40;;
21848;SDS011;11089;49.852;19.700;2023-12-20T04:39:51;5.57;;;3.53;;
21848;SDS011;11089;49.852;19.700;2023-12-20T04:42:52;7.90;;;3.60;;
21848;SDS011;11089;49.852;19.700;2023-12-20T04:45:53;5.85;;;3.70;;
21848;SDS011;11089;49.852;19.700;2023-12-20T04:48:54;5.75;;;3.28;;
21848;SDS011;11089;49.852;19.700;2023-12-20T04:51:55;6.63;;;3.50;;
21848;SDS011;11089;49.852;19.700;2023-12-20T04:54:56;6.22;;;3.03;;
21848;SDS011;11089;49.852;19.700;2023-12-20T04:57:57;14.60;;;6.90;;
21848;SDS011;11089;49.852;19.700;2023-12-20T05:00:58;9.00;;;4.43;;
21848;SDS011;11089;49.852;19.700;2023-12-20T05:03:59;16.40;;;7.13;;
21848;SDS011;11089;49.852;19.700;2023-12-20T05:07:00;8.82;;;4.50;;
21848;SDS011;11089;49.852;19.700;2023-12-20T05:10:00;20.77;;;8.85;;
21848;SDS011;11089;49.852;19.700;2023-12-20T05:13:02;13.15;;;5.90;;
21848;SDS011;11089;49.852;19.700;2023-12-20T05:16:03;8.48;;;4.60;;
21848;SDS011;11089;49.852;19.700;2023-12-20T05:19:04;9.48;;;4.35;;
21848;SDS011;11089;49.852;19.700;2023-12-20T05:22:06;6.50;;;3.80;;
21848;SDS011;11089;49.852;19.700;2023-12-20T05:25:07;8.55;;;4.65;;
21848;SDS011;11089;49.852;19.700;2023-12-20T05:28:08;7.85;;;4.35;;
21848;SDS011;11089;49.852;19.700;2023-12-20T05:31:09;9.25;;;4.85;;
21848;SDS011;11089;49.852;19.700;2023-12-20T05:34:10;7.95;;;3.97;;
21848;SDS011;11089;49.852;19.700;2023-12-20T05:37:10;9.20;;;4.68;;
21848;SDS011;11089;49.852;19.700;2023-12-20T05:40:11;7.50;;;3.60;;
21848;SDS011;11089;49.852;19.700;2023-12-20T05:43:12;9.25;;;4.57;;
21848;SDS011;11089;49.852;19.700;2023-12-20T05:46:13;5.82;;;3.60;;
21848;SDS011;11089;49.852;19.700;2023-12-20T05:49:14;8.10;;;3.65;;
21848;SDS011;11089;49.852;19.700;2023-12-20T05:52:15;8.30;;;4.05;;
21848;SDS011;11089;49.852;19.700;2023-12-20T05:55:16;6.43;;;3.60;;
21848;SDS011;11089;49.852;19.700;2023-12-20T05:58:17;6.05;;;3.67;;
21848;SDS011;11089;49.852;19.700;2023-12-20T06:01:18;6.05;;;3.65;;
21848;SDS011;11089;49.852;19.700;2023-12-20T06:04:20;6.10;;;3.33;;
21848;SDS011;11089;49.852;19.700;2023-12-20T06:07:21;12.15;;;5.75;;
21848;SDS011;11089;49.852;19.700;2023-12-20T06:10:22;13.98;;;7.30;;
21848;SDS011;11089;49.852;19.700;2023-12-20T06:13:23;13.65;;;7.15;;
21848;SDS011;11089;49.852;19.700;2023-12-20T06:16:24;14.85;;;8.15;;
21848;SDS011;11089;49.852;19.700;2023-12-20T06:19:25;17.60;;;7.85;;
21848;SDS011;11089;49.852;19.700;2023-12-20T06:22:26;22.73;;;9.23;;
21848;SDS011;11089;49.852;19.700;2023-12-20T06:25:27;24.10;;;11.38;;
21848;SDS011;11089;49.852;19.700;2023-12-20T06:28:28;23.50;;;11.00;;
21848;SDS011;11089;49.852;19.700;2023-12-20T06:31:29;24.25;;;10.98;;
21848;SDS011;11089;49.852;19.700;2023-12-20T06:34:30;21.90;;;11.02;;
21848;SDS011;11089;49.852;19.700;2023-12-20T06:37:31;23.77;;;10.60;;
21848;SDS011;11089;49.852;19.700;2023-12-20T06:40:33;18.38;;;9.88;;
21848;SDS011;11089;49.852;19.700;2023-12-20T06:43:33;17.77;;;8.88;;
21848;SDS011;11089;49.852;19.700;2023-12-20T06:46:38;13.75;;;8.18;;
21848;SDS011;11089;49.852;19.700;2023-12-20T06:49:40;15.10;;;8.00;;
21848;SDS011;11089;49.852;19.700;2023-12-20T06:52:40;15.82;;;8.20;;
21848;SDS011;11089;49.852;19.700;2023-12-20T06:55:41;14.45;;;7.90;;
21848;SDS011;11089;49.852;19.700;2023-12-20T06:58:42;17.67;;;8.55;;
21848;SDS011;11089;49.852;19.700;2023-12-20T07:01:47;15.15;;;8.23;;
21848;SDS011;11089;49.852;19.700;2023-12-20T07:04:49;13.57;;;8.05;;
21848;SDS011;11089;49.852;19.700;2023-12-20T07:07:50;16.02;;;8.30;;
21848;SDS011;11089;49.852;19.700;2023-12-20T07:10:51;15.23;;;8.18;;
21848;SDS011;11089;49.852;19.700;2023-12-20T07:13:52;14.80;;;8.05;;
21848;SDS011;11089;49.852;19.700;2023-12-20T07:16:53;17.38;;;8.82;;
21848;SDS011;11089;49.852;19.700;2023-12-20T07:19:54;19.95;;;10.00;;
21848;SDS011;11089;49.852;19.700;2023-12-20T07:22:55;20.23;;;9.65;;
21848;SDS011;11089;49.852;19.700;2023-12-20T07:25:56;20.05;;;10.93;;
21848;SDS011;11089;49.852;19.700;2023-12-20T07:28:57;18.67;;;10.48;;
21848;SDS011;11089;49.852;19.700;2023-12-20T07:31:59;21.90;;;11.60;;
21848;SDS011;11089;49.852;19.700;2023-12-20T07:35:00;22.40;;;11.45;;
21848;SDS011;11089;49.852;19.700;2023-12-20T07:38:01;24.23;;;12.02;;
21848;SDS011;11089;49.852;19.700;2023-12-20T07:41:02;27.00;;;12.95;;
21848;SDS011;11089;49.852;19.700;2023-12-20T07:44:04;25.85;;;12.50;;
21848;SDS011;11089;49.852;19.700;2023-12-20T07:47:05;28.40;;;15.25;;
21848;SDS011;11089;49.852;19.700;2023-12-20T07:50:06;25.30;;;12.63;;
21848;SDS011;11089;49.852;19.700;2023-12-20T07:53:07;28.40;;;12.93;;
21848;SDS011;11089;49.852;19.700;2023-12-20T07:56:15;27.40;;;13.85;;
21848;SDS011;11089;49.852;19.700;2023-12-20T07:59:17;31.48;;;15.98;;
21848;SDS011;11089;49.852;19.700;2023-12-20T08:02:18;36.10;;;16.10;;
21848;SDS011;11089;49.852;19.700;2023-12-20T08:05:19;34.28;;;16.10;;
21848;SDS011;11089;49.852;19.700;2023-12-20T08:08:19;36.63;;;17.38;;
21848;SDS011;11089;49.852;19.700;2023-12-20T08:11:20;34.60;;;16.98;;
21848;SDS011;11089;49.852;19.700;2023-12-20T08:14:21;29.90;;;15.27;;
21848;SDS011;11089;49.852;19.700;2023-12-20T08:17:22;24.90;;;12.30;;
21848;SDS011;11089;49.852;19.700;2023-12-20T08:20:23;21.25;;;11.25;;
21848;SDS011;11089;49.852;19.700;2023-12-20T08:23:24;17.90;;;10.20;;
21848;SDS011;11089;49.852;19.700;2023-12-20T08:26:25;16.40;;;9.05;;
21848;SDS011;11089;49.852;19.700;2023-12-20T08:29:26;18.02;;;10.05;;
21848;SDS011;11089;49.852;19.700;2023-12-20T08:32:27;20.80;;;10.82;;
21848;SDS011;11089;49.852;19.700;2023-12-20T08:35:28;18.88;;;10.30;;
21848;SDS011;11089;49.852;19.700;2023-12-20T08:38:29;20.10;;;11.63;;
21848;SDS011;11089;49.852;19.700;2023-12-20T08:41:30;21.05;;;11.82;;
21848;SDS011;11089;49.852;19.700;2023-12-20T08:44:31;23.50;;;12.40;;
21848;SDS011;11089;49.852;19.700;2023-12-20T08:47:33;29.48;;;15.10;;
21848;SDS011;11089;49.852;19.700;2023-12-20T08:50:34;30.00;;;15.82;;
21848;SDS011;11089;49.852;19.700;2023-12-20T08:53:35;23.73;;;12.95;;
21848;SDS011;11089;49.852;19.700;2023-12-20T08:56:36;20.75;;;11.63;;
21848;SDS011;11089;49.852;19.700;2023-12-20T08:59:37;31.77;;;14.48;;
21848;SDS011;11089;49.852;19.700;2023-12-20T09:02:38;24.55;;;12.75;;
21848;SDS011;11089;49.852;19.700;2023-12-20T09:05:39;22.13;;;11.48;;
21848;SDS011;11089;49.852;19.700;2023-12-20T09:08:40;20.17;;;10.75;;
21848;SDS011;11089;49.852;19.700;2023-12-20T09:11:41;21.08;;;11.25;;
21848;SDS011;11089;49.852;19.700;2023-12-20T09:14:42;18.98;;;10.45;;
21848;SDS011;11089;49.852;19.700;2023-12-20T09:17:43;19.42;;;10.65;;
21848;SDS011;11089;49.852;19.700;2023-12-20T09:20:44;19.58;;;11.65;;
21848;SDS011;11089;49.852;19.700;2023-12-20T09:23:45;22.50;;;11.02;;
21848;SDS011;11089;49.852;19.700;2023-12-20T09:26:46;15.73;;;10.18;;
21848;SDS011;11089;49.852;19.700;2023-12-20T09:29:46;17.88;;;10.40;;
21848;SDS011;11089;49.852;19.700;2023-12-20T09:32:48;20.02;;;11.02;;
21848;SDS011;11089;49.852;19.700;2023-12-20T09:35:49;20.33;;;11.68;;
21848;SDS011;11089;49.852;19.700;2023-12-20T09:38:50;20.98;;;11.55;;
21848;SDS011;11089;49.852;19.700;2023-12-20T09:45:08;20.73;;;11.95;;
21848;SDS011;11089;49.852;19.700;2023-12-20T09:48:12;23.85;;;12.38;;
21848;SDS011;11089;49.852;19.700;2023-12-20T09:51:17;22.90;;;13.00;;
21848;SDS011;11089;49.852;19.700;2023-12-20T09:54:18;19.23;;;10.00;;
21848;SDS011;11089;49.852;19.700;2023-12-20T09:57:19;16.42;;;9.32;;
21848;SDS011;11089;49.852;19.700;2023-12-20T10:00:20;15.45;;;8.90;;
21848;SDS011;11089;49.852;19.700;2023-12-20T10:03:23;16.15;;;8.65;;
21848;SDS011;11089;49.852;19.700;2023-12-20T10:06:28;12.35;;;7.55;;
21848;SDS011;11089;49.852;19.700;2023-12-20T10:09:30;14.77;;;8.20;;
21848;SDS011;11089;49.852;19.700;2023-12-20T10:12:32;13.98;;;8.45;;
21848;SDS011;11089;49.852;19.700;2023-12-20T10:15:33;14.50;;;8.48;;
21848;SDS011;11089;49.852;19.700;2023-12-20T10:18:35;13.90;;;8.07;;
21848;SDS011;11089;49.852;19.700;2023-12-20T10:21:36;17.05;;;9.25;;
21848;SDS011;11089;49.852;19.700;2023-12-20T10:24:37;18.85;;;9.40;;
21848;SDS011;11089;49.852;19.700;2023-12-20T10:27:38;18.77;;;10.32;;
21848;SDS011;11089;49.852;19.700;2023-12-20T10:30:39;18.65;;;10.82;;
21848;SDS011;11089;49.852;19.700;2023-12-20T10:33:41;17.55;;;9.68;;
21848;SDS011;11089;49.852;19.700;2023-12-20T10:36:42;15.70;;;8.93;;
21848;SDS011;11089;49.852;19.700;2023-12-20T10:39:43;17.27;;;9.55;;
21848;SDS011;11089;49.852;19.700;2023-12-20T10:42:44;19.45;;;10.13;;
21848;SDS011;11089;49.852;19.700;2023-12-20T10:45:45;19.95;;;9.40;;
21848;SDS011;11089;49.852;19.700;2023-12-20T10:48:46;20.08;;;10.27;;
21848;SDS011;11089;49.852;19.700;2023-12-20T10:51:49;16.65;;;9.20;;
21848;SDS011;11089;49.852;19.700;2023-12-20T10:54:52;18.98;;;10.23;;
21848;SDS011;11089;49.852;19.700;2023-12-20T11:01:24;22.90;;;11.75;;
21848;SDS011;11089;49.852;19.700;2023-12-20T11:04:28;22.65;;;10.57;;
21848;SDS011;11089;49.852;19.700;2023-12-20T11:07:38;17.27;;;9.05;;
21848;SDS011;11089;49.852;19.700;2023-12-20T11:10:59;17.90;;;10.82;;
21848;SDS011;11089;49.852;19.700;2023-12-20T11:14:07;18.92;;;10.70;;
21848;SDS011;11089;49.852;19.700;2023-12-20T11:17:13;20.05;;;10.30;;
21848;SDS011;11089;49.852;19.700;2023-12-20T11:20:16;10.98;;;6.20;;
21848;SDS011;11089;49.852;19.700;2023-12-20T11:23:17;13.43;;;6.32;;
21848;SDS011;11089;49.852;19.700;2023-12-20T11:26:22;11.07;;;5.10;;
21848;SDS011;11089;49.852;19.700;2023-12-20T11:29:32;9.27;;;4.72;;
21848;SDS011;11089;49.852;19.700;2023-12-20T11:32:36;12.68;;;6.05;;
21848;SDS011;11089;49.852;19.700;2023-12-20T11:35:37;6.72;;;3.70;;
21848;SDS011;11089;49.852;19.700;2023-12-20T11:38:49;7.35;;;4.07;;
21848;SDS011;11089;49.852;19.700;2023-12-20T11:41:57;7.22;;;4.22;;
21848;SDS011;11089;49.852;19.700;2023-12-20T11:45:05;7.22;;;3.70;;
21848;SDS011;11089;49.852;19.700;2023-12-20T11:48:09;5.38;;;2.90;;
21848;SDS011;11089;49.852;19.700;2023-12-20T11:51:11;5.10;;;3.15;;
21848;SDS011;11089;49.852;19.700;2023-12-20T11:54:15;8.15;;;4.47;;
21848;SDS011;11089;49.852;19.700;2023-12-20T11:57:16;5.30;;;3.30;;
21848;SDS011;11089;49.852;19.700;2023-12-20T12:00:18;6.35;;;3.47;;
21848;SDS011;11089;49.852;19.700;2023-12-20T12:03:20;8.18;;;3.30;;
21848;SDS011;11089;49.852;19.700;2023-12-20T12:06:21;4.78;;;2.75;;
21848;SDS011;11089;49.852;19.700;2023-12-20T12:09:22;3.38;;;2.25;;
21848;SDS011;11089;49.852;19.700;2023-12-20T12:12:23;4.18;;;2.75;;
21848;SDS011;11089;49.852;19.700;2023-12-20T12:15:27;3.63;;;2.10;;
21848;SDS011;11089;49.852;19.700;2023-12-20T12:18:28;5.22;;;2.90;;
21848;SDS011;11089;49.852;19.700;2023-12-20T12:21:29;6.63;;;3.83;;
21848;SDS011;11089;49.852;19.700;2023-12-20T12:24:29;17.20;;;8.43;;
21848;SDS011;11089;49.852;19.700;2023-12-20T12:27:30;8.55;;;3.97;;
21848;SDS011;11089;49.852;19.700;2023-12-20T12:30:31;8.90;;;3.90;;
21848;SDS011;11089;49.852;19.700;2023-12-20T12:33:32;9.85;;;4.00;;
21848;SDS011;11089;49.852;19.700;2023-12-20T12:36:33;13.90;;;6.50;;
21848;SDS011;11089;49.852;19.700;2023-12-20T12:39:34;16.70;;;8.20;;
21848;SDS011;11089;49.852;19.700;2023-12-20T12:42:35;17.40;;;8.38;;
21848;SDS011;11089;49.852;19.700;2023-12-20T12:45:37;15.70;;;7.32;;
21848;SDS011;11089;49.852;19.700;2023-12-20T12:48:37;23.90;;;11.10;;
21848;SDS011;11089;49.852;19.700;2023-12-20T12:51:39;22.25;;;10.27;;
21848;SDS011;11089;49.852;19.700;2023-12-20T12:54:39;13.00;;;5.93;;
21848;SDS011;11089;49.852;19.700;2023-12-20T12:57:41;15.15;;;6.03;;
21848;SDS011;11089;49.852;19.700;2023-12-20T13:00:43;10.20;;;4.68;;
21848;SDS011;11089;49.852;19.700;2023-12-20T13:03:44;100.20;;;26.75;;
21848;SDS011;11089;49.852;19.700;2023-12-20T13:06:45;66.03;;;19.38;;
21848;SDS011;11089;49.852;19.700;2023-12-20T13:09:47;14.57;;;5.40;;
21848;SDS011;11089;49.852;19.700;2023-12-20T13:12:47;9.30;;;3.45;;
21848;SDS011;11089;49.852;19.700;2023-12-20T13:15:48;3.63;;;2.08;;
21848;SDS011;11089;49.852;19.700;2023-12-20T13:18:53;5.45;;;2.50;;
21848;SDS011;11089;49.852;19.700;2023-12-20T13:21:53;10.40;;;5.03;;
21848;SDS011;11089;49.852;19.700;2023-12-20T13:24:55;5.25;;;2.80;;
21848;SDS011;11089;49.852;19.700;2023-12-20T13:27:55;4.32;;;2.40;;
21848;SDS011;11089;49.852;19.700;2023-12-20T13:30:56;3.38;;;1.92;;
21848;SDS011;11089;49.852;19.700;2023-12-20T13:33:57;3.15;;;1.83;;
21848;SDS011;11089;49.852;19.700;2023-12-20T13:36:58;3.65;;;1.95;;
21848;SDS011;11089;49.852;19.700;2023-12-20T13:39:59;8.65;;;3.53;;
21848;SDS011;11089;49.852;19.700;2023-12-20T13:43:01;13.35;;;5.07;;
21848;SDS011;11089;49.852;19.700;2023-12-20T13:46:03;13.65;;;5.68;;
21848;SDS011;11089;49.852;19.700;2023-12-20T13:49:04;4.45;;;2.30;;
21848;SDS011;11089;49.852;19.700;2023-12-20T13:52:05;14.48;;;4.20;;
21848;SDS011;11089;49.852;19.700;2023-12-20T13:55:06;7.72;;;3.55;;
21848;SDS011;11089;49.852;19.700;2023-12-20T13:58:08;16.83;;;6.40;;
21848;SDS011;11089;49.852;19.700;2023-12-20T14:01:10;22.00;;;8.20;;
21848;SDS011;11089;49.852;19.700;2023-12-20T14:04:11;18.88;;;6.90;;
21848;SDS011;11089;49.852;19.700;2023-12-20T14:07:12;7.85;;;2.92;;
21848;SDS011;11089;49.852;19.700;2023-12-20T14:10:13;7.18;;;3.60;;
21848;SDS011;11089;49.852;19.700;2023-12-20T14:13:15;5.95;;;3.13;;
21848;SDS011;11089;49.852;19.700;2023-12-20T14:16:16;10.80;;;5.05;;
21848;SDS011;11089;49.852;19.700;2023-12-20T14:19:17;9.60;;;4.50;;
21848;SDS011;11089;49.852;19.700;2023-12-20T14:22:18;10.52;;;3.70;;
21848;SDS011;11089;49.852;19.700;2023-12-20T14:25:19;8.48;;;3.35;;
21848;SDS011;11089;49.852;19.700;2023-12-20T14:28:20;13.10;;;5.85;;
21848;SDS011;11089;49.852;19.700;2023-12-20T14:31:21;10.80;;;4.10;;
21848;SDS011;11089;49.852;19.700;2023-12-20T14:34:25;6.45;;;3.22;;
21848;SDS011;11089;49.852;19.700;2023-12-20T14:37:25;6.38;;;3.47;;
21848;SDS011;11089;49.852;19.700;2023-12-20T14:40:27;7.72;;;3.55;;
21848;SDS011;11089;49.852;19.700;2023-12-20T14:43:28;8.68;;;3.85;;
21848;SDS011;11089;49.852;19.700;2023-12-20T14:46:29;8.27;;;4.07;;
21848;SDS011;11089;49.852;19.700;2023-12-20T14:49:30;18.77;;;7.25;;
21848;SDS011;11089;49.852;19.700;2023-12-20T14:52:32;16.83;;;5.95;;
21848;SDS011;11089;49.852;19.700;2023-12-20T14:55:37;18.58;;;6.30;;
21848;SDS011;11089;49.852;19.700;2023-12-20T14:58:38;41.97;;;13.63;;
21848;SDS011;11089;49.852;19.700;2023-12-20T15:01:40;48.58;;;14.88;;
21848;SDS011;11089;49.852;19.700;2023-12-20T15:04:41;54.22;;;17.40;;
21848;SDS011;11089;49.852;19.700;2023-12-20T15:07:43;15.18;;;6.15;;
21848;SDS011;11089;49.852;19.700;2023-12-20T15:10:44;14.70;;;5.65;;
21848;SDS011;11089;49.852;19.700;2023-12-20T15:13:45;13.82;;;6.25;;
21848;SDS011;11089;49.852;19.700;2023-12-20T15:16:54;24.65;;;11.32;;
21848;SDS011;11089;49.852;19.700;2023-12-20T15:19:55;12.32;;;6.10;;
21848;SDS011;11089;49.852;19.700;2023-12-20T15:22:56;17.60;;;7.53;;
21848;SDS011;11089;49.852;19.700;2023-12-20T15:25:59;18.25;;;8.65;;
21848;SDS011;11089;49.852;19.700;2023-12-20T15:29:03;22.55;;;10.60;;
21848;SDS011;11089;49.852;19.700;2023-12-20T15:32:04;26.73;;;10.85;;
21848;SDS011;11089;49.852;19.700;2023-12-20T15:35:05;21.02;;;9.18;;
21848;SDS011;11089;49.852;19.700;2023-12-20T15:38:07;24.40;;;11.10;;
21848;SDS011;11089;49.852;19.700;2023-12-20T15:41:07;26.83;;;10.35;;
21848;SDS011;11089;49.852;19.700;2023-12-20T15:44:08;20.23;;;8.07;;
21848;SDS011;11089;49.852;19.700;2023-12-20T15:47:09;14.20;;;6.80;;
21848;SDS011;11089;49.852;19.700;2023-12-20T15:50:11;18.33;;;7.75;;
21848;SDS011;11089;49.852;19.700;2023-12-20T15:53:12;17.45;;;8.00;;
21848;SDS011;11089;49.852;19.700;2023-12-20T15:56:13;16.15;;;7.50;;
21848;SDS011;11089;49.852;19.700;2023-12-20T15:59:14;18.48;;;8.65;;
21848;SDS011;11089;49.852;19.700;2023-12-20T16:02:15;17.50;;;7.63;;
21848;SDS011;11089;49.852;19.700;2023-12-20T16:05:16;21.10;;;8.20;;
21848;SDS011;11089;49.852;19.700;2023-12-20T16:08:17;14.20;;;7.53;;
21848;SDS011;11089;49.852;19.700;2023-12-20T16:11:18;15.02;;;7.00;;
21848;SDS011;11089;49.852;19.700;2023-12-20T16:14:19;14.93;;;7.00;;
21848;SDS011;11089;49.852;19.700;2023-12-20T16:17:21;17.90;;;8.00;;
21848;SDS011;11089;49.852;19.700;2023-12-20T16:20:21;13.90;;;6.95;;
21848;SDS011;11089;49.852;19.700;2023-12-20T16:23:23;16.45;;;7.90;;
21848;SDS011;11089;49.852;19.700;2023-12-20T16:26:24;15.85;;;7.95;;
21848;SDS011;11089;49.852;19.700;2023-12-20T16:29:25;18.42;;;7.28;;
21848;SDS011;11089;49.852;19.700;2023-12-20T16:32:26;17.83;;;8.13;;
21848;SDS011;11089;49.852;19.700;2023-12-20T16:35:27;17.63;;;8.40;;
21848;SDS011;11089;49.852;19.700;2023-12-20T16:38:28;16.95;;;8.85;;
21848;SDS011;11089;49.852;19.700;2023-12-20T16:41:29;14.98;;;7.60;;
21848;SDS011;11089;49.852;19.700;2023-12-20T16:44:30;16.25;;;7.90;;
21848;SDS011;11089;49.852;19.700;2023-12-20T16:47:31;19.25;;;7.97;;
21848;SDS011;11089;49.852;19.700;2023-12-20T16:50:32;29.70;;;12.63;;
21848;SDS011;11089;49.852;19.700;2023-12-20T16:53:33;22.67;;;9.60;;
21848;SDS011;11089;49.852;19.700;2023-12-20T16:56:34;15.80;;;8.13;;
21848;SDS011;11089;49.852;19.700;2023-12-20T16:59:35;16.27;;;7.20;;
21848;SDS011;11089;49.852;19.700;2023-12-20T17:02:36;14.65;;;7.38;;
21848;SDS011;11089;49.852;19.700;2023-12-20T17:05:37;15.77;;;6.95;;
21848;SDS011;11089;49.852;19.700;2023-12-20T17:08:38;14.68;;;6.70;;
21848;SDS011;11089;49.852;19.700;2023-12-20T17:11:39;15.50;;;7.40;;
21848;SDS011;11089;49.852;19.700;2023-12-20T17:14:40;17.45;;;7.68;;
21848;SDS011;11089;49.852;19.700;2023-12-20T17:17:41;18.08;;;8.15;;
21848;SDS011;11089;49.852;19.700;2023-12-20T17:20:42;16.25;;;6.88;;
21848;SDS011;11089;49.852;19.700;2023-12-20T17:23:43;13.52;;;6.38;;
21848;SDS011;11089;49.852;19.700;2023-12-20T17:26:45;12.68;;;6.53;;
21848;SDS011;11089;49.852;19.700;2023-12-20T17:29:46;12.18;;;6.53;;
21848;SDS011;11089;49.852;19.700;2023-12-20T17:32:47;17.23;;;6.25;;
21848;SDS011;11089;49.852;19.700;2023-12-20T17:35:49;14.60;;;6.60;;
21848;SDS011;11089;49.852;19.700;2023-12-20T17:38:50;16.98;;;6.85;;
21848;SDS011;11089;49.852;19.700;2023-12-20T17:41:51;15.60;;;7.28;;
21848;SDS011;11089;49.852;19.700;2023-12-20T17:44:53;16.77;;;7.43;;
21848;SDS011;11089;49.852;19.700;2023-12-20T17:47:54;14.98;;;7.22;;
21848;SDS011;11089;49.852;19.700;2023-12-20T17:50:55;20.80;;;7.80;;